Time;durP1;ratioP1;P1;durP2;ratioP2;P2;SDS_P1;SDS_P2;PMS_P1;PMS_P2;Temp;Humidity;BMP_temperature;BMP_pressure;BME280_temperature;BME280_humidity;BME280_pressure;Samples;Min_cycle;Max_cycle;Signal;HPM_P1;HPM_P2
2023/11/17 00:00:50;;;;;;;2.37;1.30;;;6.60;60.90;;;;;;4993179;28;20417;-73
2023/11/17 00:03:16;;;;;;;1.93;0.80;;;6.50;59.30;;;;;;4993414;28;20417;-71
2023/11/17 00:05:41;;;;;;;3.20;1.27;;;6.50;59.10;;;;;;4993290;28;20465;-73
2023/11/17 00:08:07;;;;;;;1.80;0.83;;;6.40;57.40;;;;;;4992322;28;20228;-73
2023/11/17 00:10:34;;;;;;;1.53;0.80;;;6.40;57.60;;;;;;4992859;28;20189;-73
2023/11/17 00:13:00;;;;;;;1.70;0.80;;;6.40;58.50;;;;;;4993018;28;20443;-73
2023/11/17 00:15:25;;;;;;;2.33;1.20;;;6.40;58.20;;;;;;4992395;28;20444;-74
2023/11/17 00:17:52;;;;;;;2.03;1.00;;;6.30;58.40;;;;;;4992509;28;20412;-72
2023/11/17 00:20:19;;;;;;;1.70;1.07;;;6.40;58.30;;;;;;4992227;28;20541;-72
2023/11/17 00:22:47;;;;;;;2.13;1.10;;;6.30;58.60;;;;;;4974563;28;20425;-74
2023/11/17 00:25:14;;;;;;;1.50;0.70;;;6.30;57.80;;;;;;4992270;28;20413;-72
2023/11/17 00:27:40;;;;;;;2.50;1.20;;;6.20;56.60;;;;;;4992899;28;20425;-71
2023/11/17 00:30:07;;;;;;;2.97;1.30;;;6.20;57.50;;;;;;4991708;28;20429;-71
2023/11/17 00:32:33;;;;;;;1.97;1.30;;;6.20;58.30;;;;;;4992365;28;20396;-71
2023/11/17 00:34:59;;;;;;;1.50;0.73;;;6.20;58.90;;;;;;4991854;28;20425;-72
2023/11/17 00:37:26;;;;;;;1.90;0.90;;;6.20;58.90;;;;;;4991244;28;20468;-73
2023/11/17 00:39:55;;;;;;;2.60;1.17;;;6.10;56.70;;;;;;4992267;28;20428;-71
2023/11/17 00:42:20;;;;;;;1.97;1.20;;;6.10;56.00;;;;;;4991531;28;20417;-71
2023/11/17 00:44:46;;;;;;;2.70;1.70;;;6.10;56.70;;;;;;4991435;28;20473;-73
2023/11/17 00:47:12;;;;;;;2.00;1.20;;;6.10;58.00;;;;;;4990425;28;20212;-73
2023/11/17 00:49:39;;;;;;;5.00;1.33;;;6.10;57.30;;;;;;4991308;28;20484;-73
2023/11/17 00:52:05;;;;;;;2.30;1.10;;;6.00;56.80;;;;;;4990132;28;20425;-73
2023/11/17 00:54:36;;;;;;;3.07;1.07;;;6.00;56.10;;;;;;4992277;28;20416;-74
2023/11/17 00:57:03;;;;;;;1.40;0.63;;;5.90;55.80;;;;;;4994479;28;20544;-72
2023/11/17 00:59:29;;;;;;;2.00;1.20;;;5.90;55.30;;;;;;4995059;28;20685;-73
2023/11/17 01:01:55;;;;;;;2.13;1.30;;;5.90;54.80;;;;;;4978924;28;20424;-71
2023/11/17 01:04:21;;;;;;;2.10;1.10;;;5.90;55.20;;;;;;4995426;28;20471;-73
2023/11/17 01:06:53;;;;;;;2.30;1.10;;;5.90;54.80;;;;;;4980125;28;20444;-71
2023/11/17 01:09:20;;;;;;;2.00;1.10;;;5.80;54.30;;;;;;4997469;28;20487;-72
2023/11/17 01:11:45;;;;;;;2.03;1.17;;;5.70;53.80;;;;;;4997510;28;20416;-72
2023/11/17 01:14:11;;;;;;;1.80;0.90;;;5.70;56.00;;;;;;4978790;28;20444;-72
2023/11/17 01:16:37;;;;;;;1.50;0.63;;;5.70;55.90;;;;;;4995150;28;20193;-72
2023/11/17 01:19:03;;;;;;;1.57;0.73;;;5.70;54.80;;;;;;4995275;28;20237;-71
2023/11/17 01:21:29;;;;;;;1.50;0.60;;;5.70;53.90;;;;;;4995912;28;20443;-73
2023/11/17 01:23:55;;;;;;;1.97;0.67;;;5.60;52.50;;;;;;4995943;28;20212;-70
2023/11/17 01:26:20;;;;;;;1.40;0.60;;;5.60;52.20;;;;;;4978728;28;20523;-73
2023/11/17 01:28:46;;;;;;;2.10;0.80;;;5.50;51.60;;;;;;4995356;28;20201;-73
2023/11/17 01:31:12;;;;;;;1.73;0.70;;;5.50;52.80;;;;;;4995200;28;20173;-72
2023/11/17 01:33:38;;;;;;;1.57;0.60;;;5.50;52.90;;;;;;4993378;28;20207;-72
2023/11/17 01:36:08;;;;;;;1.63;0.87;;;5.50;53.00;;;;;;4994641;28;20478;-73
2023/11/17 01:38:34;;;;;;;2.53;0.70;;;5.50;54.70;;;;;;4994663;28;20409;-73
2023/11/17 01:40:59;;;;;;;1.40;0.50;;;5.60;55.40;;;;;;4993909;28;20420;-71
2023/11/17 01:43:25;;;;;;;1.50;0.60;;;5.50;54.10;;;;;;4992775;28;20199;-72
2023/11/17 01:45:54;;;;;;;1.67;0.83;;;5.50;54.60;;;;;;4994151;28;20256;-72
2023/11/17 01:48:20;;;;;;;1.87;0.80;;;5.50;55.00;;;;;;4993295;28;20200;-71
2023/11/17 01:50:46;;;;;;;1.40;0.50;;;5.40;55.80;;;;;;4994208;28;20423;-72
2023/11/17 01:53:12;;;;;;;1.63;0.70;;;5.40;55.90;;;;;;4993803;28;20420;-73
2023/11/17 01:55:40;;;;;;;1.50;0.63;;;5.40;56.60;;;;;;4992589;28;20205;-72
2023/11/17 01:58:08;;;;;;;1.60;0.70;;;5.40;55.40;;;;;;4977333;28;20467;-73
2023/11/17 02:00:33;;;;;;;1.90;0.83;;;5.40;55.80;;;;;;4993674;28;20405;-71
2023/11/17 02:03:00;;;;;;;1.87;0.90;;;5.40;56.20;;;;;;4993386;28;20439;-72
2023/11/17 02:05:26;;;;;;;1.63;0.70;;;5.40;56.60;;;;;;4993347;28;20205;-71
2023/11/17 02:08:09;;;;;;;1.40;0.67;;;5.40;56.80;;;;;;4991785;28;20423;-72
2023/11/17 02:10:46;;;;;;;1.93;0.80;;;5.40;57.50;;;;;;4993482;28;20413;-73
2023/11/17 02:13:27;;;;;;;1.50;0.60;;;5.40;58.20;;;;;;4992192;28;20420;-71
2023/11/17 02:16:01;;;;;;;1.70;0.87;;;5.50;58.30;;;;;;4991202;28;20845;-72
2023/11/17 02:18:30;;;;;;;1.67;0.70;;;5.50;55.90;;;;;;4993149;28;20428;-72
2023/11/17 02:20:56;;;;;;;2.27;0.63;;;5.50;56.60;;;;;;4975484;28;20424;-72
2023/11/17 02:23:25;;;;;;;1.50;0.70;;;5.50;56.10;;;;;;4992623;28;20424;-72
2023/11/17 02:26:17;;;;;;;1.90;0.80;;;5.50;56.40;;;;;;4976516;28;20464;-73
2023/11/17 02:28:58;;;;;;;2.03;0.77;;;5.50;57.60;;;;;;4993217;28;20857;-72
2023/11/17 02:31:31;;;;;;;1.50;0.80;;;5.50;57.60;;;;;;4992316;28;20432;-72
2023/11/17 02:34:03;;;;;;;1.77;0.70;;;5.50;56.60;;;;;;4993475;28;20544;-72
2023/11/17 02:36:32;;;;;;;1.80;0.70;;;5.50;56.30;;;;;;4993841;28;20460;-73
2023/11/17 02:39:14;;;;;;;1.80;1.00;;;5.50;58.30;;;;;;4993811;28;20433;-73
2023/11/17 02:41:43;;;;;;;3.23;0.93;;;5.50;58.30;;;;;;4994150;28;20452;-72
2023/11/17 02:44:12;;;;;;;2.07;0.73;;;5.40;58.30;;;;;;4994577;28;20484;-71
2023/11/17 02:46:44;;;;;;;2.00;0.90;;;5.40;58.20;;;;;;4994851;28;20425;-73
2023/11/17 02:49:17;;;;;;;2.40;1.10;;;5.40;58.20;;;;;;4977513;28;20468;-73
2023/11/17 02:51:50;;;;;;;1.90;0.83;;;5.40;58.20;;;;;;4994110;28;20420;-71
2023/11/17 02:54:16;;;;;;;2.10;1.00;;;5.40;57.30;;;;;;4994837;28;20518;-72
2023/11/17 02:56:42;;;;;;;3.23;1.00;;;5.40;58.20;;;;;;4994421;28;20503;-73
2023/11/17 02:59:10;;;;;;;1.87;0.90;;;5.40;56.60;;;;;;4994221;28;20449;-73
2023/11/17 03:01:40;;;;;;;1.60;0.80;;;5.40;56.90;;;;;;4993595;28;20484;-72
2023/11/17 03:04:13;;;;;;;2.20;1.17;;;5.40;55.50;;;;;;4993871;28;20413;-71
2023/11/17 03:06:40;;;;;;;3.40;1.17;;;5.40;57.60;;;;;;4993923;28;20439;-71
2023/11/17 03:09:06;;;;;;;2.33;1.23;;;5.40;57.40;;;;;;4994268;28;20460;-71
2023/11/17 03:11:32;;;;;;;1.60;1.07;;;5.40;58.20;;;;;;4993970;28;20509;-71
2023/11/17 03:13:57;;;;;;;1.60;0.80;;;5.50;58.30;;;;;;4977384;28;20413;-72
2023/11/17 03:16:26;;;;;;;2.13;1.07;;;5.50;58.30;;;;;;4993600;28;20193;-72
2023/11/17 03:18:52;;;;;;;1.80;0.63;;;5.50;59.00;;;;;;4993833;28;20181;-72
2023/11/17 03:21:19;;;;;;;1.80;1.03;;;5.50;59.50;;;;;;4993853;28;20492;-72
2023/11/17 03:23:45;;;;;;;3.20;1.37;;;5.60;59.20;;;;;;4993909;28;20425;-72
2023/11/17 03:26:11;;;;;;;1.90;0.90;;;5.60;58.40;;;;;;4993177;28;20835;-73
2023/11/17 03:28:37;;;;;;;2.07;1.40;;;5.60;59.10;;;;;;4976002;28;20204;-72
2023/11/17 03:31:04;;;;;;;3.60;1.43;;;5.50;58.30;;;;;;4993762;28;20200;-71
2023/11/17 03:33:30;;;;;;;2.17;1.20;;;5.50;58.30;;;;;;4976180;28;20425;-71
2023/11/17 03:35:56;;;;;;;1.90;1.03;;;5.50;58.30;;;;;;4989332;28;20463;-72
2023/11/17 03:38:22;;;;;;;2.50;1.47;;;5.50;58.30;;;;;;4977106;28;20847;-71
2023/11/17 03:40:47;;;;;;;2.43;1.30;;;5.40;58.20;;;;;;4977284;28;20205;-71
2023/11/17 03:43:13;;;;;;;2.33;1.13;;;5.40;58.70;;;;;;4976432;28;20930;-72
2023/11/17 03:45:48;;;;;;;1.93;1.00;;;5.40;59.00;;;;;;4976846;28;20697;-71
2023/11/17 03:48:14;;;;;;;2.03;0.93;;;5.50;59.50;;;;;;4976268;28;20514;-72
2023/11/17 03:50:39;;;;;;;1.67;0.70;;;5.50;60.00;;;;;;4976001;28;20420;-71
2023/11/17 03:53:05;;;;;;;1.70;0.93;;;5.50;59.10;;;;;;4976261;28;20417;-71
2023/11/17 03:55:31;;;;;;;2.03;1.00;;;5.50;58.30;;;;;;4976170;28;20388;-71
2023/11/17 03:57:57;;;;;;;2.50;1.00;;;5.60;58.40;;;;;;4975935;28;20173;-71
2023/11/17 04:00:23;;;;;;;1.90;0.80;;;5.60;58.40;;;;;;4976174;28;20784;-72
2023/11/17 04:02:52;;;;;;;2.37;1.23;;;5.60;58.40;;;;;;4975673;28;20184;-72
2023/11/17 04:05:19;;;;;;;1.80;0.87;;;5.50;57.90;;;;;;4975965;28;20508;-72
2023/11/17 04:07:44;;;;;;;1.70;1.07;;;5.50;58.30;;;;;;4975850;28;20943;-72
2023/11/17 04:10:10;;;;;;;1.70;1.00;;;5.50;58.90;;;;;;4975742;28;20463;-71
2023/11/17 04:12:36;;;;;;;1.73;0.70;;;5.50;58.30;;;;;;4975760;28;20201;-71
2023/11/17 04:15:02;;;;;;;1.57;0.87;;;5.50;58.30;;;;;;4975898;28;20459;-72
2023/11/17 04:17:30;;;;;;;2.00;1.10;;;5.50;58.30;;;;;;4975947;28;20631;-72
2023/11/17 04:19:56;;;;;;;2.23;0.80;;;5.60;58.40;;;;;;4975915;28;20855;-71
2023/11/17 04:22:22;;;;;;;2.10;0.90;;;5.50;58.30;;;;;;4975365;28;20444;-71
2023/11/17 04:24:47;;;;;;;1.60;0.80;;;5.50;58.10;;;;;;4975615;28;20421;-71
2023/11/17 04:27:13;;;;;;;1.70;0.70;;;5.50;57.70;;;;;;4975630;28;20437;-71
2023/11/17 04:29:39;;;;;;;1.60;0.60;;;5.40;56.90;;;;;;4974872;28;20746;-71
2023/11/17 04:32:04;;;;;;;2.80;0.80;;;5.40;57.60;;;;;;4975625;28;20252;-71
2023/11/17 04:34:31;;;;;;;2.30;1.20;;;5.50;58.20;;;;;;4975317;28;20662;-71
2023/11/17 04:36:57;;;;;;;1.50;0.73;;;5.50;56.10;;;;;;4975553;28;20291;-71
2023/11/17 04:39:24;;;;;;;1.63;0.83;;;5.40;57.00;;;;;;4975502;28;20448;-72
2023/11/17 04:41:51;;;;;;;1.50;0.50;;;5.50;56.40;;;;;;4975238;28;20439;-71
2023/11/17 04:44:17;;;;;;;1.63;0.70;;;5.40;56.60;;;;;;4975553;28;20424;-71
2023/11/17 04:46:43;;;;;;;1.43;0.60;;;5.40;57.30;;;;;;4975497;28;20446;-71
2023/11/17 04:49:08;;;;;;;1.40;0.70;;;5.40;57.30;;;;;;4975275;28;20460;-71
2023/11/17 04:51:35;;;;;;;1.50;0.70;;;5.40;56.90;;;;;;4957992;28;20173;-71
2023/11/17 04:54:01;;;;;;;1.67;0.60;;;5.30;56.90;;;;;;4974609;28;20549;-71
2023/11/17 04:56:28;;;;;;;1.70;0.70;;;5.30;56.40;;;;;;4974862;28;20433;-71
2023/11/17 04:58:54;;;;;;;1.77;0.60;;;5.30;55.50;;;;;;4975345;28;20420;-71
2023/11/17 05:01:20;;;;;;;2.43;1.00;;;5.30;55.30;;;;;;4974622;28;20791;-71
2023/11/17 05:03:45;;;;;;;2.57;0.90;;;5.20;55.40;;;;;;4975495;28;20917;-71
2023/11/17 05:06:11;;;;;;;1.97;1.00;;;5.20;56.40;;;;;;4975711;28;20199;-71
2023/11/17 05:08:37;;;;;;;1.67;0.63;;;5.30;55.00;;;;;;4975962;28;20201;-72
2023/11/17 05:11:04;;;;;;;1.40;0.60;;;5.30;53.70;;;;;;4974476;28;20179;-72
2023/11/17 05:13:31;;;;;;;1.60;0.63;;;5.30;53.40;;;;;;4975748;28;20428;-72
2023/11/17 05:15:56;;;;;;;1.30;0.50;;;5.30;51.90;;;;;;4958505;28;20495;-71
2023/11/17 05:18:22;;;;;;;1.60;0.70;;;5.30;52.40;;;;;;4975654;28;20424;-73
2023/11/17 05:20:47;;;;;;;1.40;0.70;;;5.30;53.90;;;;;;4975848;28;20204;-73
2023/11/17 05:23:16;;;;;;;1.40;0.50;;;5.40;51.80;;;;;;4958267;28;20561;-72
2023/11/17 05:25:41;;;;;;;3.53;1.10;;;5.30;52.40;;;;;;4975658;28;20734;-71
2023/11/17 05:28:10;;;;;;;2.07;0.90;;;5.30;52.70;;;;;;4975665;28;20514;-72
2023/11/17 05:30:37;;;;;;;1.73;0.70;;;5.30;52.60;;;;;;4975343;28;20177;-72
2023/11/17 05:33:03;;;;;;;1.67;0.60;;;5.30;51.70;;;;;;4975056;28;20413;-71
2023/11/17 05:35:29;;;;;;;1.83;0.90;;;5.30;53.30;;;;;;4975767;28;20842;-72
2023/11/17 05:37:54;;;;;;;2.90;0.67;;;5.30;52.50;;;;;;4975148;28;20470;-72
2023/11/17 05:40:20;;;;;;;5.83;0.73;;;5.30;54.40;;;;;;4974361;28;20183;-72
2023/11/17 05:42:46;;;;;;;1.90;0.97;;;5.30;53.60;;;;;;4978587;28;20441;-72
2023/11/17 05:45:12;;;;;;;5.93;0.93;;;5.30;52.80;;;;;;4979475;28;20592;-72
2023/11/17 05:47:56;;;;;;;1.97;0.83;;;5.30;53.60;;;;;;4978883;28;20649;-72
2023/11/17 05:50:25;;;;;;;4.30;1.30;;;5.40;52.10;;;;;;4978924;28;20417;-73
2023/11/17 05:52:51;;;;;;;1.57;0.80;;;5.40;52.50;;;;;;4977560;28;20503;-72
2023/11/17 05:55:17;;;;;;;2.10;0.80;;;5.40;51.50;;;;;;4978743;28;21029;-71
2023/11/17 05:57:44;;;;;;;2.00;0.80;;;5.50;51.90;;;;;;4978566;28;20184;-73
2023/11/17 06:00:13;;;;;;;2.83;1.03;;;5.40;50.30;;;;;;4978550;28;20408;-71
2023/11/17 06:02:39;;;;;;;1.93;0.60;;;5.40;50.50;;;;;;4977342;28;20424;-71
2023/11/17 06:05:09;;;;;;;1.90;0.93;;;5.40;50.00;;;;;;4978929;28;20412;-71
2023/11/17 06:07:35;;;;;;;2.27;0.87;;;5.50;50.70;;;;;;4978169;28;20463;-72
2023/11/17 06:10:00;;;;;;;3.33;1.03;;;5.40;50.40;;;;;;4978380;28;20468;-72
2023/11/17 06:12:27;;;;;;;4.20;1.00;;;5.50;49.40;;;;;;4978206;28;20173;-72
2023/11/17 06:14:55;;;;;;;2.43;0.80;;;5.40;48.50;;;;;;4978364;28;20165;-72
2023/11/17 06:17:21;;;;;;;3.50;1.10;;;5.50;50.10;;;;;;4978074;28;20436;-72
2023/11/17 06:19:47;;;;;;;2.40;0.67;;;5.60;49.00;;;;;;4977715;28;20417;-72
2023/11/17 06:22:13;;;;;;;2.83;1.30;;;5.40;47.90;;;;;;4978304;28;20177;-72
2023/11/17 06:24:38;;;;;;;1.80;0.63;;;5.40;49.10;;;;;;4978139;28;20474;-72
2023/11/17 06:27:07;;;;;;;1.40;0.60;;;5.50;50.30;;;;;;4978489;28;20211;-72
2023/11/17 06:29:32;;;;;;;1.60;0.70;;;5.50;49.20;;;;;;4978247;28;20205;-72
2023/11/17 06:31:58;;;;;;;1.90;0.70;;;5.50;49.30;;;;;;4978246;28;20420;-72
2023/11/17 06:34:23;;;;;;;5.10;0.80;;;5.50;48.60;;;;;;4977142;28;20246;-72
2023/11/17 06:36:51;;;;;;;2.10;0.77;;;5.50;46.50;;;;;;4977537;28;20276;-72
2023/11/17 06:39:23;;;;;;;2.87;1.30;;;5.50;48.10;;;;;;4977600;28;20674;-72
2023/11/17 06:41:53;;;;;;;1.60;0.70;;;5.50;47.80;;;;;;4977473;28;20420;-72
2023/11/17 06:44:22;;;;;;;2.10;1.10;;;5.50;49.50;;;;;;4976766;28;20448;-71
2023/11/17 06:46:49;;;;;;;1.90;1.00;;;5.50;47.50;;;;;;4977363;28;20465;-72
2023/11/17 06:49:19;;;;;;;4.13;2.33;;;5.40;48.00;;;;;;4959983;28;20472;-72
2023/11/17 06:51:48;;;;;;;4.13;2.20;;;5.40;48.50;;;;;;4977299;28;20416;-73
2023/11/17 06:54:15;;;;;;;2.67;1.13;;;5.50;48.60;;;;;;4975164;28;20432;-72
2023/11/17 06:56:41;;;;;;;6.43;1.90;;;5.50;46.70;;;;;;4976769;28;20432;-73
2023/11/17 06:59:11;;;;;;;2.93;1.70;;;5.50;47.30;;;;;;4976555;28;20424;-73
2023/11/17 07:01:37;;;;;;;3.10;2.17;;;5.60;48.70;;;;;;4976977;28;20920;-72
2023/11/17 07:04:05;;;;;;;1.90;1.30;;;5.60;47.50;;;;;;4976375;28;20788;-72
2023/11/17 07:06:31;;;;;;;2.20;1.13;;;5.60;48.70;;;;;;4977123;28;20436;-72
2023/11/17 07:08:57;;;;;;;1.93;1.00;;;5.60;46.90;;;;;;4976340;28;20571;-72
2023/11/17 07:11:26;;;;;;;2.10;1.13;;;5.60;47.60;;;;;;4976235;28;20511;-73
2023/11/17 07:13:55;;;;;;;2.00;1.40;;;5.60;48.70;;;;;;4975910;28;20812;-72
2023/11/17 07:16:21;;;;;;;2.23;1.30;;;5.70;48.70;;;;;;4976290;28;20491;-73
2023/11/17 07:18:47;;;;;;;1.83;0.93;;;5.70;49.40;;;;;;4976164;28;20420;-71
2023/11/17 07:21:16;;;;;;;2.20;1.20;;;5.60;47.90;;;;;;4958266;28;20435;-72
2023/11/17 07:23:44;;;;;;;2.33;1.40;;;5.50;47.80;;;;;;4975399;28;20451;-72
2023/11/17 07:26:17;;;;;;;2.07;1.03;;;5.60;48.70;;;;;;4975427;28;20520;-72
2023/11/17 07:28:55;;;;;;;2.70;1.43;;;5.60;48.70;;;;;;4975917;28;20471;-72
2023/11/17 07:31:27;;;;;;;1.90;0.97;;;5.60;48.70;;;;;;4975468;28;20463;-73
2023/11/17 07:33:56;;;;;;;2.13;0.80;;;5.60;48.70;;;;;;4975705;28;20420;-72
2023/11/17 07:36:22;;;;;;;1.70;0.83;;;5.70;49.80;;;;;;4975598;28;20461;-72
2023/11/17 07:38:51;;;;;;;3.33;1.10;;;5.70;49.50;;;;;;4975669;28;20417;-72
2023/11/17 07:41:25;;;;;;;1.73;0.77;;;5.70;48.70;;;;;;4975845;28;20428;-72
2023/11/17 07:43:51;;;;;;;2.33;1.07;;;5.70;48.80;;;;;;4975135;28;20443;-72
2023/11/17 07:46:17;;;;;;;1.90;0.90;;;5.80;49.50;;;;;;4975298;28;20949;-72
2023/11/17 07:48:45;;;;;;;2.20;0.90;;;5.90;48.90;;;;;;4975260;28;20213;-72
2023/11/17 07:51:14;;;;;;;2.13;1.03;;;5.90;48.90;;;;;;4974904;28;20435;-72
2023/11/17 07:53:39;;;;;;;1.70;0.60;;;5.90;47.90;;;;;;4974908;28;20439;-71
2023/11/17 07:56:09;;;;;;;1.53;0.60;;;5.90;45.50;;;;;;4974924;28;20938;-72
2023/11/17 07:58:36;;;;;;;2.60;0.93;;;5.90;46.90;;;;;;4975054;28;20247;-71
2023/11/17 08:01:03;;;;;;;2.00;1.00;;;5.90;47.30;;;;;;4975032;28;20941;-72
2023/11/17 08:03:29;;;;;;;2.17;0.90;;;6.00;47.90;;;;;;4974578;28;20511;-72
2023/11/17 08:05:56;;;;;;;2.10;1.03;;;6.00;47.60;;;;;;4956687;28;20445;-73
2023/11/17 08:08:22;;;;;;;2.47;1.00;;;6.10;46.60;;;;;;4974666;28;20567;-73
2023/11/17 08:10:48;;;;;;;2.23;1.37;;;6.10;45.80;;;;;;4957093;28;20464;-72
2023/11/17 08:13:15;;;;;;;1.60;0.77;;;6.20;45.90;;;;;;4974849;28;20177;-72
2023/11/17 08:15:41;;;;;;;1.70;0.90;;;6.20;44.80;;;;;;4974381;28;20477;-72
2023/11/17 08:18:08;;;;;;;1.57;0.63;;;6.30;42.70;;;;;;4974174;28;20452;-72
2023/11/17 08:20:38;;;;;;;1.50;0.67;;;6.20;41.70;;;;;;4974531;28;20422;-71
2023/11/17 08:23:04;;;;;;;5.17;1.07;;;6.30;42.60;;;;;;4956726;28;20456;-71
2023/11/17 08:25:30;;;;;;;1.97;1.03;;;6.40;41.00;;;;;;4974594;28;20451;-72
2023/11/17 08:27:57;;;;;;;1.70;0.77;;;6.40;41.00;;;;;;4974061;28;20550;-72
2023/11/17 08:30:23;;;;;;;1.70;0.80;;;6.40;38.90;;;;;;4974276;28;20988;-71
2023/11/17 08:32:49;;;;;;;1.83;0.83;;;6.30;41.00;;;;;;4973987;28;20443;-72
2023/11/17 08:35:14;;;;;;;2.73;0.80;;;6.30;39.90;;;;;;4974117;28;20440;-72
2023/11/17 08:37:41;;;;;;;1.73;0.60;;;6.10;39.90;;;;;;4973885;28;20205;-72
2023/11/17 08:40:09;;;;;;;1.50;0.53;;;6.10;39.00;;;;;;4974289;28;20189;-71
2023/11/17 08:42:39;;;;;;;1.70;0.83;;;6.20;40.60;;;;;;4973973;28;20517;-72
2023/11/17 08:45:09;;;;;;;2.00;0.77;;;6.10;39.80;;;;;;4973846;28;20467;-72
2023/11/17 08:47:38;;;;;;;2.20;0.80;;;5.90;40.30;;;;;;4973999;28;20409;-71
2023/11/17 08:50:08;;;;;;;1.70;0.73;;;6.00;42.10;;;;;;4974024;28;20519;-71
2023/11/17 08:52:35;;;;;;;4.13;1.03;;;6.00;40.40;;;;;;4973894;28;20400;-72
2023/11/17 08:55:08;;;;;;;3.60;0.70;;;6.10;41.00;;;;;;4973794;28;20428;-71
2023/11/17 08:57:35;;;;;;;2.57;1.20;;;6.20;41.00;;;;;;4973773;28;20412;-70
2023/11/17 09:00:11;;;;;;;3.13;1.07;;;6.10;39.00;;;;;;4973638;28;20438;-72
2023/11/17 09:02:40;;;;;;;2.63;1.00;;;6.00;39.70;;;;;;4973193;28;20517;-72
2023/11/17 09:05:08;;;;;;;1.70;1.00;;;6.00;41.30;;;;;;4973485;28;20416;-70
2023/11/17 09:07:40;;;;;;;2.00;0.97;;;6.10;41.90;;;;;;4973768;28;20501;-71
2023/11/17 09:10:11;;;;;;;1.60;0.73;;;6.40;41.90;;;;;;4973447;28;20460;-72
2023/11/17 09:12:39;;;;;;;1.73;0.83;;;6.60;40.40;;;;;;4973310;28;20425;-72
2023/11/17 09:15:09;;;;;;;1.80;0.63;;;6.60;35.80;;;;;;4973526;28;20424;-71
2023/11/17 09:17:40;;;;;;;1.80;0.70;;;6.50;35.30;;;;;;4976550;28;20475;-71
2023/11/17 09:20:09;;;;;;;1.40;0.50;;;6.40;37.10;;;;;;4977150;28;20414;-72
2023/11/17 09:22:36;;;;;;;2.57;0.67;;;6.30;37.70;;;;;;4977141;28;20777;-71
2023/11/17 09:25:13;;;;;;;4.30;0.70;;;6.40;39.30;;;;;;4975865;28;20945;-71
2023/11/17 09:27:40;;;;;;;2.20;1.00;;;6.60;39.40;;;;;;4977800;28;20413;-71
2023/11/17 09:30:07;;;;;;;2.57;0.77;;;6.80;37.60;;;;;;4976908;28;20460;-72
2023/11/17 09:32:32;;;;;;;1.80;0.77;;;6.80;35.10;;;;;;4976837;28;20560;-72
2023/11/17 09:34:58;;;;;;;1.80;0.80;;;6.90;34.50;;;;;;4976925;28;20463;-72
2023/11/17 09:37:23;;;;;;;1.97;0.77;;;7.10;35.50;;;;;;4976795;28;20740;-73
2023/11/17 09:39:49;;;;;;;2.10;0.73;;;7.20;32.80;;;;;;4977001;28;20238;-74
2023/11/17 09:42:16;;;;;;;2.00;0.70;;;7.20;30.00;;;;;;4976812;28;20178;-72
2023/11/17 09:44:42;;;;;;;2.73;1.10;;;7.10;31.80;;;;;;4976512;28;20178;-72
2023/11/17 09:47:21;;;;;;;2.10;1.03;;;7.10;32.40;;;;;;4975283;28;20448;-71
2023/11/17 09:49:49;;;;;;;1.60;0.70;;;7.00;33.10;;;;;;4976754;28;20478;-72
2023/11/17 09:52:17;;;;;;;2.20;1.00;;;7.00;35.60;;;;;;4976435;28;20423;-72
2023/11/17 09:54:46;;;;;;;1.67;0.73;;;6.90;32.70;;;;;;4975200;28;20430;-71
2023/11/17 09:57:13;;;;;;;2.23;0.90;;;7.20;33.30;;;;;;4975683;28;20803;-71
2023/11/17 09:59:44;;;;;;;2.97;1.10;;;7.10;31.00;;;;;;4977456;28;20863;-72
2023/11/17 10:02:15;;;;;;;2.37;1.13;;;7.10;32.40;;;;;;4959032;28;20435;-73
2023/11/17 10:04:41;;;;;;;2.10;0.93;;;7.00;31.90;;;;;;4975611;28;20479;-71
2023/11/17 10:07:09;;;;;;;2.77;1.13;;;7.30;33.20;;;;;;4975787;28;20442;-71
2023/11/17 10:09:37;;;;;;;1.97;0.80;;;7.20;31.20;;;;;;4975656;28;20488;-71
2023/11/17 10:12:05;;;;;;;2.50;1.10;;;7.10;31.60;;;;;;4975984;28;20913;-72
2023/11/17 10:14:33;;;;;;;1.60;0.67;;;7.30;32.10;;;;;;4958167;28;20454;-70
2023/11/17 10:17:00;;;;;;;2.17;0.90;;;7.00;29.70;;;;;;4976260;28;20961;-73
2023/11/17 10:19:29;;;;;;;1.77;0.97;;;6.80;31.90;;;;;;4975753;28;20475;-72
2023/11/17 10:21:55;;;;;;;1.73;0.90;;;7.10;33.90;;;;;;4975790;28;20506;-72
2023/11/17 10:24:21;;;;;;;2.20;1.03;;;7.20;29.80;;;;;;4975553;28;20505;-72
2023/11/17 10:26:47;;;;;;;2.13;0.87;;;7.20;29.50;;;;;;4974285;28;20209;-70
2023/11/17 10:29:14;;;;;;;2.00;0.70;;;6.90;29.60;;;;;;4974415;28;20465;-71
2023/11/17 10:31:42;;;;;;;1.53;0.57;;;7.00;31.80;;;;;;4975433;28;20435;-71
2023/11/17 10:34:16;;;;;;;1.80;0.90;;;7.10;29.70;;;;;;4979056;28;20504;-72
2023/11/17 10:36:58;;;;;;;1.60;0.70;;;7.30;31.30;;;;;;4979890;28;20509;-71
2023/11/17 10:39:24;;;;;;;3.50;1.50;;;7.50;28.10;;;;;;4979186;28;20464;-73
2023/11/17 10:41:51;;;;;;;2.70;1.40;;;7.40;27.00;;;;;;4962916;28;20941;-73
2023/11/17 10:44:31;;;;;;;2.20;1.40;;;7.40;28.90;;;;;;4980355;28;20424;-73
2023/11/17 10:46:57;;;;;;;2.23;1.13;;;7.50;29.70;;;;;;4978497;28;20437;-71
2023/11/17 10:49:23;;;;;;;1.90;0.90;;;7.70;27.80;;;;;;4975049;28;20483;-72
2023/11/17 10:51:50;;;;;;;1.70;0.70;;;7.40;28.50;;;;;;4976985;28;20803;-71
2023/11/17 10:54:17;;;;;;;1.87;0.73;;;7.30;29.80;;;;;;4981544;28;20201;-74
2023/11/17 10:56:44;;;;;;;2.20;1.40;;;7.40;27.70;;;;;;4981155;28;20434;-71
2023/11/17 10:59:21;;;;;;;2.10;1.20;;;7.30;30.50;;;;;;4963785;28;20434;-73
2023/11/17 11:01:48;;;;;;;2.20;1.23;;;7.40;29.30;;;;;;4964100;28;20544;-72
2023/11/17 11:04:25;;;;;;;2.13;1.40;;;7.30;29.80;;;;;;4981121;28;20503;-72
2023/11/17 11:06:57;;;;;;;2.40;1.03;;;7.20;30.80;;;;;;4979706;28;20819;-72
2023/11/17 11:09:32;;;;;;;1.60;0.77;;;7.30;31.20;;;;;;4981069;28;20544;-72
2023/11/17 11:11:58;;;;;;;2.07;1.00;;;7.30;27.60;;;;;;4980176;28;20415;-74
2023/11/17 11:14:27;;;;;;;2.50;0.93;;;7.30;29.40;;;;;;4979807;28;20417;-72
2023/11/17 11:16:55;;;;;;;1.70;0.63;;;7.50;26.50;;;;;;4980063;28;20204;-72
2023/11/17 11:19:25;;;;;;;2.00;1.10;;;7.50;28.50;;;;;;4980755;28;20451;-72
2023/11/17 11:22:00;;;;;;;1.90;1.03;;;7.60;28.80;;;;;;4980156;28;20436;-71
2023/11/17 11:24:33;;;;;;;3.20;1.23;;;7.70;28.40;;;;;;4980052;28;20414;-72
2023/11/17 11:27:05;;;;;;;1.90;0.70;;;7.70;26.90;;;;;;4980358;28;20440;-71
2023/11/17 11:29:31;;;;;;;2.00;1.07;;;7.50;27.80;;;;;;4962664;28;20475;-71
2023/11/17 11:32:00;;;;;;;1.70;0.90;;;7.50;27.60;;;;;;4980111;28;20408;-73
2023/11/17 11:34:26;;;;;;;1.87;0.90;;;7.60;28.60;;;;;;4980061;28;20790;-72
2023/11/17 11:36:52;;;;;;;1.80;0.80;;;7.40;28.30;;;;;;4980503;28;20458;-72
2023/11/17 11:39:17;;;;;;;1.70;0.80;;;7.30;29.80;;;;;;4978490;28;20275;-72
2023/11/17 11:41:45;;;;;;;2.33;1.30;;;7.20;29.20;;;;;;4980574;28;20428;-72
2023/11/17 11:44:11;;;;;;;2.77;1.20;;;7.30;31.00;;;;;;4980561;28;20178;-72
2023/11/17 11:46:37;;;;;;;2.20;1.03;;;7.00;29.70;;;;;;4980297;28;20448;-71
2023/11/17 11:49:07;;;;;;;1.80;0.80;;;7.00;33.20;;;;;;4980443;28;20464;-71
2023/11/17 11:51:42;;;;;;;1.80;0.80;;;7.00;33.90;;;;;;4980001;28;20180;-73
2023/11/17 11:54:09;;;;;;;1.90;0.80;;;7.10;31.60;;;;;;4962755;28;20413;-72
2023/11/17 11:56:41;;;;;;;1.63;0.70;;;7.30;30.90;;;;;;4980037;28;20434;-72
2023/11/17 11:59:07;;;;;;;2.60;0.80;;;7.20;29.80;;;;;;4981352;28;20522;-71
2023/11/17 12:01:34;;;;;;;1.80;0.90;;;7.30;29.80;;;;;;4979680;28;20450;-72
2023/11/17 12:04:05;;;;;;;1.77;0.70;;;7.30;30.90;;;;;;4979541;28;20412;-73
2023/11/17 12:06:32;;;;;;;1.80;0.90;;;7.20;28.80;;;;;;4981067;28;20443;-72
2023/11/17 12:09:08;;;;;;;2.20;1.20;;;7.20;29.80;;;;;;4981226;28;20473;-71
2023/11/17 12:11:36;;;;;;;1.77;0.70;;;7.30;29.80;;;;;;4980513;28;20414;-71
2023/11/17 12:14:07;;;;;;;2.53;1.17;;;7.10;28.40;;;;;;4981215;28;20415;-72
2023/11/17 12:16:39;;;;;;;1.90;1.00;;;6.90;28.30;;;;;;4981684;28;20841;-72
2023/11/17 12:19:05;;;;;;;2.93;1.30;;;6.90;30.60;;;;;;4980540;28;20422;-73
2023/11/17 12:21:38;;;;;;;1.90;1.23;;;7.00;31.70;;;;;;4980461;28;20831;-73
2023/11/17 12:24:13;;;;;;;2.67;1.40;;;7.00;30.80;;;;;;4979392;28;20409;-70
2023/11/17 12:26:44;;;;;;;4.83;1.60;;;7.20;33.20;;;;;;4980334;28;20532;-73
2023/11/17 12:29:19;;;;;;;2.50;1.20;;;7.30;32.00;;;;;;4980478;28;20465;-74
2023/11/17 12:31:50;;;;;;;2.87;1.13;;;7.20;29.80;;;;;;4979843;28;20411;-71
2023/11/17 12:34:16;;;;;;;3.80;1.33;;;7.30;29.80;;;;;;4979608;28;20413;-72
2023/11/17 12:36:42;;;;;;;2.17;1.00;;;7.30;29.80;;;;;;4979990;28;20453;-72
2023/11/17 12:39:08;;;;;;;2.50;1.87;;;7.40;28.00;;;;;;4979689;28;20189;-72
2023/11/17 12:41:35;;;;;;;3.20;1.77;;;7.30;28.50;;;;;;4979311;28;20232;-73
2023/11/17 12:44:01;;;;;;;2.30;1.20;;;7.20;29.00;;;;;;4979664;28;20422;-72
2023/11/17 12:46:30;;;;;;;4.23;2.00;;;7.10;28.30;;;;;;4979714;28;20438;-72
2023/11/17 12:48:57;;;;;;;2.63;1.30;;;7.30;28.90;;;;;;4978397;28;20467;-72
2023/11/17 12:51:30;;;;;;;2.97;2.17;;;7.30;28.10;;;;;;4978666;28;20424;-72
2023/11/17 12:53:58;;;;;;;3.23;1.53;;;7.20;29.20;;;;;;4979048;28;20416;-73
2023/11/17 12:56:25;;;;;;;3.30;1.70;;;7.20;29.80;;;;;;4960411;28;20441;-73
2023/11/17 12:58:55;;;;;;;2.37;1.40;;;7.10;30.10;;;;;;4977090;28;20443;-72
2023/11/17 13:01:24;;;;;;;3.67;1.77;;;7.20;29.80;;;;;;4977718;28;20417;-71